Terminal Aerodrome Forecast
Issued by NWS

Home | Current Version | Previous Version | Text Only | Print | Product List | Glossary On
Versions: 1 2 3 4 5 6 7 8 9 10 11 12
031
FTUS46 KHNX 302337
TAFMER
TAF
KMER 302337Z 0100/0124 33012G20KT P6SM SKC
     FM010700 34008KT P6SM FEW200
     FM011800 32014G20KT P6SM SCT200=

USA.gov is the U.S. government's official web portal to all federal, state and local government web resources and services.